Date,TemperatureHighF,TemperatureAvgF,TemperatureLowF,DewpointHighF,DewpointAvgF,DewpointLowF,HumidityHigh,HumidityAvg,HumidityLow,PressureMaxIn,PressureMinIn,WindSpeedMaxMPH,WindSpeedAvgMPH,GustSpeedMaxMPH,PrecipitationSumIn
2013-1-1,32,26,22,23,17,10,85,70,54,0.00,40.00,2,1,5,0.00
2013-1-2,31,24,21,16,10,6,82,54,44,0.00,40.00,3,2,5,0.00
2013-1-3,29,24,15,24,12,-2,96,63,28,0.00,40.00,6,3,9,0.00
2013-1-4,33,30,25,32,29,25,99,97,91,0.00,40.00,6,4,9,0.00
2013-1-5,29,27,24,29,26,23,100,97,91,0.00,40.00,4,1,7,0.00
2013-1-6,29,28,25,26,16,-100,93,76,55,0.00,40.00,8,-40,13,0.00
2013-1-7,36,32,27,34,29,19,99,88,58,0.00,40.00,24,13,32,0.01
2013-1-8,34,30,26,34,26,14,100,87,52,0.00,40.00,11,6,15,0.01
2013-1-9,34,28,21,32,23,10,93,81,60,0.00,40.00,12,9,16,0.01
2013-1-10,25,20,15,15,12,7,94,72,56,0.00,40.00,5,3,8,0.00
2013-1-11,19,15,12,15,6,-100,96,80,72,0.00,40.00,4,-45,7,0.00
2013-1-12,21,16,12,11,5,0,86,63,45,0.00,40.00,4,2,7,0.00
2013-1-13,24,18,11,13,8,3,92,64,45,0.00,40.00,2,2,5,0.00
2013-1-14,38,34,30,28,20,14,70,57,43,0.00,40.00,5,2,7,0.00
2013-1-15,52,46,38,16,0,-100,36,19,11,0.00,40.00,5,-44,8,0.00
2013-1-16,51,45,41,16,7,3,33,21,15,0.00,40.00,6,4,10,0.00
2013-1-17,51,45,42,20,8,-100,38,26,17,0.00,40.00,8,-80,10,0.00
2013-1-18,46,44,42,8,-7,-100,22,14,10,0.00,40.00,13,-33,18,0.00
2013-1-19,52,46,42,8,4,0,23,18,12,0.00,40.00,4,2,8,0.00
2013-1-20,52,46,42,3,1,-3,18,15,12,0.00,40.00,5,3,7,0.00
2013-1-21,53,46,39,4,-9,-100,21,11,7,0.00,40.00,6,-40,8,0.00
2013-1-22,50,43,38,3,-8,-18,23,11,6,0.00,40.00,4,-44,6,0.00
2013-1-23,38,33,29,31,20,5,98,63,25,0.00,40.00,12,6,16,0.00
2013-1-24,35,30,25,30,16,-3,98,62,21,0.00,40.00,10,5,14,0.00
2013-1-25,36,32,28,34,24,-100,99,87,75,0.00,40.00,7,-39,10,0.00
2013-1-26,33,27,25,22,20,17,85,76,60,0.00,40.00,8,4,11,0.00
2013-1-27,27,25,24,21,19,16,84,78,68,0.00,40.00,10,7,14,0.00
2013-1-28,29,26,23,22,19,16,84,76,67,0.00,40.00,10,7,15,0.00
2013-1-29,38,31,26,31,20,-100,85,75,68,0.00,40.00,10,-40,14,0.00
2013-1-30,42,38,32,29,22,14,83,54,33,0.00,40.00,8,-48,11,0.00
2013-1-31,40,35,32,30,27,22,88,72,51,0.00,40.00,8,5,15,0.00